Laguna Naick Neck, Argentina
Current Conditions -  °F | °C
As of 3:00 PM on Sunday 21 Dec 2014 (Local Time) from SGAS Reporting Station
Overcast Overcast  
Wind Chill: 75°   Ceiling: 1700
Heat Index: 75°   Visibility: 6mi
Dew Point: 70°   Wind: 7mph
Humidity: 83%   Direction: 160°SSE
Pressure: 29.62"   Gusts: 22mph
Location:  25.26°S, 58.12°W
Report Text: SGAS 211800Z 16006G19KT 9999 BKN017 OVC080 24/21 Q1003
Loading
Personal Weather Stations






























Interactive Weather Map New forecast layout! Learn more

10-Day Weather Forecast

Advertisements
Track Severe Weather on mobile